Time;durP1;ratioP1;P1;durP2;ratioP2;P2;SDS_P1;SDS_P2;PMS_P1;PMS_P2;Temp;Humidity;BMP_temperature;BMP_pressure;BME280_temperature;BME280_humidity;BME280_pressure;Samples;Min_cycle;Max_cycle;Signal;HPM_P1;HPM_P2
2022/05/23 00:00:07;;;;;;;7.78;3.90;;;;;;;15.94;72.19;99692.56;5065779;28;20052;-76
2022/05/23 00:02:34;;;;;;;8.10;4.00;;;;;;;15.90;71.97;99683.13;5070318;28;20040;-76
2022/05/23 00:05:01;;;;;;;6.45;3.80;;;;;;;15.94;72.12;99680.06;5070345;28;20062;-75
2022/05/23 00:07:29;;;;;;;6.57;4.00;;;;;;;15.94;71.88;99687.22;5053507;28;20132;-74
2022/05/23 00:09:56;;;;;;;6.85;3.88;;;;;;;15.89;72.26;99676.94;5070531;28;20436;-74
2022/05/23 00:12:24;;;;;;;9.50;4.65;;;;;;;15.83;72.66;99687.25;5073237;28;20071;-73
2022/05/23 00:14:51;;;;;;;7.28;4.00;;;;;;;15.63;72.85;99662.97;5067039;28;20056;-72
2022/05/23 00:17:19;;;;;;;5.10;3.85;;;;;;;15.75;72.87;99686.03;5067695;28;20048;-75
2022/05/23 00:19:47;;;;;;;8.15;3.85;;;;;;;15.68;72.98;99679.50;5069770;28;20056;-75
2022/05/23 00:22:16;;;;;;;6.65;4.15;;;;;;;15.62;73.20;99682.63;5068900;28;20141;-74
2022/05/23 00:24:44;;;;;;;5.30;4.30;;;;;;;15.62;73.81;99682.63;5068022;28;20060;-71
2022/05/23 00:27:13;;;;;;;5.82;4.20;;;;;;;15.64;73.86;99711.88;5072941;28;20476;-70
2022/05/23 00:29:41;;;;;;;5.75;3.75;;;;;;;15.62;73.76;99712.00;5068117;28;20036;-75
2022/05/23 00:37:40;;;;;;;6.13;3.70;;;;;;;15.56;73.96;99680.47;5066789;28;20056;-76
2022/05/23 00:40:11;;;;;;;8.45;4.15;;;;;;;15.62;73.91;99684.44;5069615;28;20044;-74
2022/05/23 00:45:25;;;;;;;7.07;3.83;;;;;;;15.64;73.63;99678.03;5067136;28;20052;-75
2022/05/23 00:47:53;;;;;;;6.18;4.28;;;;;;;15.71;73.75;99686.41;5069310;28;20106;-72
2022/05/23 00:50:20;;;;;;;4.93;3.80;;;;;;;15.63;73.20;99671.00;5067782;28;20492;-74
2022/05/23 00:52:54;;;;;;;6.75;3.83;;;;;;;15.78;73.05;99672.44;5070486;28;20108;-76
2022/05/23 00:55:37;;;;;;;6.13;3.90;;;;;;;15.80;72.27;99672.31;5064383;28;20048;-75
2022/05/23 00:58:08;;;;;;;4.50;3.38;;;;;;;15.65;72.21;99649.50;5068408;28;20056;-75
2022/05/23 01:00:35;;;;;;;5.72;4.03;;;;;;;15.79;71.88;99660.78;5073962;28;20048;-75
2022/05/23 01:03:10;;;;;;;5.53;3.70;;;;;;;15.77;71.79;99653.88;5074004;28;20098;-76
2022/05/23 01:05:38;;;;;;;4.22;3.55;;;;;;;15.78;71.97;99651.09;5066862;28;20056;-75
2022/05/23 01:08:05;;;;;;;6.97;4.05;;;;;;;15.83;71.89;99655.22;5064291;28;20048;-73
2022/05/23 01:10:35;;;;;;;6.70;3.53;;;;;;;15.78;71.79;99629.72;5073816;28;20053;-75
2022/05/23 01:13:03;;;;;;;5.63;3.67;;;;;;;15.81;71.43;99635.78;5078514;28;20488;-75
2022/05/23 01:15:32;;;;;;;8.70;4.05;;;;;;;15.71;71.27;99614.34;5065227;28;20495;-75
2022/05/23 01:18:01;;;;;;;;;;;;;;;15.84;71.12;99631.06;5069182;28;20064;-76
2022/05/23 01:20:29;;;;;;;7.38;3.60;;;;;;;15.87;70.66;99621.97;5059768;28;19935;-74
2022/05/23 01:23:07;;;;;;;5.45;3.30;;;;;;;15.84;70.75;99609.69;5065299;28;20048;-73
2022/05/23 01:25:44;;;;;;;4.60;3.85;;;;;;;15.77;70.73;99598.66;5069727;28;20636;-75
2022/05/23 01:28:11;;;;;;;4.15;3.40;;;;;;;15.89;70.75;99602.19;5070894;28;20044;-71
2022/05/23 01:30:40;;;;;;;4.82;3.35;;;;;;;15.93;70.58;99592.06;5061553;28;20045;-73
2022/05/23 01:33:09;;;;;;;6.68;3.78;;;;;;;15.94;70.42;99583.94;5069294;28;20399;-75
2022/05/23 01:35:37;;;;;;;4.40;3.50;;;;;;;15.93;70.03;99584.06;5071023;28;20035;-75
2022/05/23 01:38:04;;;;;;;6.72;3.25;;;;;;;15.94;70.41;99591.94;5070893;28;20056;-76
2022/05/23 01:40:31;;;;;;;4.43;3.17;;;;;;;15.90;70.36;99579.81;5069049;28;20619;-77
2022/05/23 01:42:58;;;;;;;6.15;3.53;;;;;;;15.91;70.18;99592.19;5073014;28;20067;-73
2022/05/23 01:45:31;;;;;;;6.30;3.78;;;;;;;15.93;70.43;99589.41;5070296;28;20063;-75
2022/05/23 01:47:59;;;;;;;6.45;3.67;;;;;;;15.87;70.42;99577.41;5067974;28;20049;-75
2022/05/23 01:50:26;;;;;;;5.43;3.70;;;;;;;15.87;70.76;99587.25;5077048;28;20063;-75
2022/05/23 01:52:53;;;;;;;5.93;3.88;;;;;;;15.84;70.52;99588.34;5073310;28;20156;-78
2022/05/23 01:55:21;;;;;;;6.63;3.92;;;;;;;15.79;70.64;99575.38;5071972;28;20094;-75
2022/05/23 01:57:48;;;;;;;5.13;3.67;;;;;;;15.62;70.99;99535.00;5073960;28;20129;-75
2022/05/23 02:03:00;;;;;;;6.18;3.83;;;;;;;15.53;71.85;99563.25;5068510;28;20048;-74
2022/05/23 02:05:27;;;;;;;3.97;3.60;;;;;;;15.42;72.39;99553.44;5068422;28;20053;-76
2022/05/23 02:07:55;;;;;;;5.78;4.00;;;;;;;15.40;72.39;99570.56;5071221;28;20059;-75
2022/05/23 02:10:22;;;;;;;6.57;4.20;;;;;;;15.35;72.89;99559.41;5068431;28;20053;-74
2022/05/23 02:12:49;;;;;;;7.43;4.10;;;;;;;15.36;73.18;99559.28;5076615;28;20048;-73
2022/05/23 02:15:17;;;;;;;6.50;4.00;;;;;;;15.37;73.16;99562.78;5067706;28;20126;-76
2022/05/23 02:17:44;;;;;;;4.90;3.65;;;;;;;15.30;73.14;99550.91;5071553;28;20060;-75
2022/05/23 02:20:12;;;;;;;7.88;4.15;;;;;;;15.29;73.10;99559.88;5072006;28;20057;-74
2022/05/23 02:22:39;;;;;;;6.15;4.35;;;;;;;15.23;73.46;99552.38;5063669;28;20775;-75
2022/05/23 02:25:07;;;;;;;6.10;3.85;;;;;;;15.21;73.43;99549.81;5074714;28;20449;-74
2022/05/23 02:27:35;;;;;;;7.97;4.30;;;;;;;15.21;73.80;99556.97;5073000;28;20522;-75
2022/05/23 02:30:03;;;;;;;5.28;4.00;;;;;;;15.15;74.07;99557.44;5068132;28;20048;-74
2022/05/23 02:32:30;;;;;;;5.57;3.85;;;;;;;15.12;74.45;99557.69;5065641;28;20044;-75
2022/05/23 02:34:58;;;;;;;5.28;3.97;;;;;;;15.09;74.18;99546.31;5067753;28;20127;-75
2022/05/23 02:37:25;;;;;;;7.07;3.97;;;;;;;15.08;74.54;99552.63;5069942;28;20048;-75
2022/05/23 02:39:51;;;;;;;4.15;3.72;;;;;;;15.05;74.61;99547.53;5066905;28;20146;-76
2022/05/23 02:42:18;;;;;;;5.80;3.92;;;;;;;15.04;74.84;99536.97;5067132;28;20499;-75
2022/05/23 02:44:49;;;;;;;6.28;4.30;;;;;;;15.06;75.16;99532.38;5071376;28;20122;-75
2022/05/23 02:47:15;;;;;;;;;;;;;;;15.06;74.96;99517.22;5074237;28;20127;-76
2022/05/23 02:49:42;;;;;;;6.13;3.95;;;;;;;14.92;75.25;99504.16;5070821;28;19920;-74
2022/05/23 02:52:09;;;;;;;6.95;4.40;;;;;;;14.95;75.28;99517.19;5071846;28;20099;-75
2022/05/23 02:54:35;;;;;;;6.65;4.38;;;;;;;14.97;74.98;99512.59;5070816;28;20109;-75
2022/05/23 02:57:03;;;;;;;6.93;4.32;;;;;;;14.71;75.11;99479.16;5070181;28;20980;-76
2022/05/23 02:59:29;;;;;;;5.65;4.07;;;;;;;15.00;74.99;99523.03;5071753;28;20058;-74
2022/05/23 03:04:43;;;;;;;5.97;4.05;;;;;;;15.05;74.53;99510.19;5060361;28;20106;-75
2022/05/23 03:07:10;;;;;;;8.85;4.50;;;;;;;15.04;74.36;99500.50;5073802;28;20052;-73
2022/05/23 03:09:37;;;;;;;5.75;4.45;;;;;;;14.98;74.04;99484.13;5068553;28;20761;-76
2022/05/23 03:12:04;;;;;;;6.10;4.30;;;;;;;14.97;74.46;99479.75;5079312;28;20057;-73
2022/05/23 03:14:31;;;;;;;6.75;4.32;;;;;;;15.04;73.82;99483.66;5071674;28;20570;-75
2022/05/23 03:17:04;;;;;;;4.85;4.13;;;;;;;15.08;73.49;99480.63;5071389;28;20144;-72
2022/05/23 03:19:35;;;;;;;5.95;4.07;;;;;;;15.07;73.00;99492.25;5077268;28;20044;-75
2022/05/23 03:27:32;;;;;;;5.57;4.30;;;;;;;15.28;71.77;99484.34;5078361;28;20055;-75
2022/05/23 03:29:59;;;;;;;8.18;4.10;;;;;;;15.32;71.42;99484.94;5074401;28;20051;-74
2022/05/23 03:32:26;;;;;;;6.10;4.25;;;;;;;15.33;71.14;99476.81;5069991;28;20203;-75
2022/05/23 03:34:52;;;;;;;7.43;4.28;;;;;;;15.27;70.80;99477.31;5068401;28;20110;-74
2022/05/23 03:37:20;;;;;;;7.38;4.70;;;;;;;15.25;70.89;99476.59;5072306;28;20526;-75
2022/05/23 03:39:46;;;;;;;7.25;4.47;;;;;;;15.22;70.98;99476.84;5075021;28;20079;-74
2022/05/23 03:42:13;;;;;;;5.38;4.55;;;;;;;15.22;71.25;99486.66;5075904;28;20064;-74
2022/05/23 03:44:40;;;;;;;7.40;4.47;;;;;;;15.23;71.29;99485.69;5057690;28;20076;-75
2022/05/23 03:47:07;;;;;;;5.55;4.22;;;;;;;15.21;71.48;99500.97;5077795;28;20509;-76
2022/05/23 03:49:34;;;;;;;6.30;4.72;;;;;;;15.15;71.38;99474.78;5075275;28;20052;-74
2022/05/23 03:52:01;;;;;;;6.47;4.47;;;;;;;15.27;71.24;99495.13;5069981;28;20102;-74
2022/05/23 03:54:28;;;;;;;5.68;4.22;;;;;;;15.27;71.47;99487.97;5074506;28;20076;-74
2022/05/23 03:57:00;;;;;;;4.43;3.97;;;;;;;15.36;71.12;99492.59;5069916;28;20553;-76
2022/05/23 03:59:27;;;;;;;6.55;4.43;;;;;;;15.50;70.01;99510.13;5070151;28;20044;-76
2022/05/23 04:01:56;;;;;;;6.55;4.10;;;;;;;15.52;70.00;99518.88;5071151;28;20264;-74
2022/05/23 04:04:28;;;;;;;4.95;4.40;;;;;;;15.48;70.05;99528.09;5065104;28;20055;-75
2022/05/23 04:07:04;;;;;;;7.75;4.35;;;;;;;15.46;70.40;99535.34;5070931;28;20052;-74
2022/05/23 04:09:32;;;;;;;6.40;4.03;;;;;;;15.43;70.35;99536.44;5072000;28;20115;-75
2022/05/23 04:11:58;;;;;;;6.03;4.25;;;;;;;15.53;69.98;99552.59;5067673;28;20420;-74
2022/05/23 04:14:26;;;;;;;6.78;4.47;;;;;;;15.56;69.13;99548.84;5072985;28;20079;-73
2022/05/23 04:16:53;;;;;;;5.82;4.28;;;;;;;15.57;69.00;99559.41;5068339;28;20150;-75
2022/05/23 04:19:21;;;;;;;9.95;4.75;;;;;;;15.57;68.85;99546.06;5076048;28;20084;-73
2022/05/23 04:21:48;;;;;;;6.22;4.03;;;;;;;15.61;69.42;99543.97;5072931;28;20573;-75
2022/05/23 04:24:17;;;;;;;5.82;4.63;;;;;;;15.68;69.25;99559.38;5070327;28;20947;-75
2022/05/23 04:26:44;;;;;;;5.75;4.18;;;;;;;15.77;68.56;99565.78;5077563;28;20483;-75
2022/05/23 04:29:12;;;;;;;6.80;4.65;;;;;;;15.87;68.15;99568.56;5074603;28;20479;-71
2022/05/23 04:31:38;;;;;;;6.30;4.28;;;;;;;15.89;67.56;99569.28;5080721;28;20040;-74
2022/05/23 04:36:50;;;;;;;6.07;4.10;;;;;;;15.88;67.44;99559.59;5069473;28;20056;-73
2022/05/23 04:39:17;;;;;;;8.45;4.35;;;;;;;15.78;67.62;99541.63;5076035;28;20067;-75
2022/05/23 04:41:45;;;;;;;7.88;4.70;;;;;;;15.95;67.50;99566.09;5067817;28;20075;-74
2022/05/23 04:44:11;;;;;;;6.40;4.32;;;;;;;16.02;67.55;99569.97;5071734;28;20048;-73
2022/05/23 04:49:41;;;;;;;7.18;4.40;;;;;;;15.92;67.46;99553.00;5071742;28;20115;-74
2022/05/23 04:49:49;;;;;;;9.02;4.65;;;;;;;15.96;67.04;99546.44;5074273;28;20036;-74
2022/05/23 04:52:19;;;;;;;6.20;4.80;;;;;;;16.09;66.65;99577.34;5074586;28;20411;-75
2022/05/23 04:54:47;;;;;;;6.80;4.25;;;;;;;16.09;67.08;99574.66;5071076;28;20052;-75
2022/05/23 04:57:14;;;;;;;8.07;4.22;;;;;;;16.09;66.56;99565.81;5072397;28;20102;-74
2022/05/23 04:59:41;;;;;;;5.55;4.20;;;;;;;16.09;66.82;99541.78;5072591;28;20053;-74
2022/05/23 05:02:08;;;;;;;7.93;4.60;;;;;;;16.13;66.82;99536.06;5070146;28;20045;-74
2022/05/23 05:04:35;;;;;;;8.38;4.78;;;;;;;16.20;66.84;99540.91;5070036;28;20105;-75
2022/05/23 05:07:02;;;;;;;6.03;4.07;;;;;;;16.24;66.86;99527.13;5060564;28;20072;-76
2022/05/23 05:09:28;;;;;;;7.03;4.55;;;;;;;16.33;66.28;99520.19;5071361;28;20106;-76
2022/05/23 05:11:55;;;;;;;8.60;4.75;;;;;;;16.21;66.39;99484.66;5067669;28;20067;-75
2022/05/23 05:14:22;;;;;;;7.07;4.55;;;;;;;16.35;65.79;99486.16;5064233;28;20052;-76
2022/05/23 05:16:49;;;;;;;4.85;4.10;;;;;;;16.39;66.07;99488.44;5066459;28;20041;-74
2022/05/23 05:19:16;;;;;;;6.53;3.92;;;;;;;16.39;65.62;99482.22;5069151;28;20501;-74
2022/05/23 05:21:43;;;;;;;5.07;4.30;;;;;;;16.35;66.10;99462.97;5070304;28;20106;-73
2022/05/23 05:24:14;;;;;;;5.78;4.40;;;;;;;16.36;65.86;99459.31;5063696;28;20044;-74
2022/05/23 05:26:42;;;;;;;8.95;4.53;;;;;;;16.38;65.15;99449.31;5060906;28;20060;-74
2022/05/23 05:29:09;;;;;;;7.80;4.10;;;;;;;16.42;64.68;99456.09;5064379;28;20056;-73
2022/05/23 05:31:42;;;;;;;7.97;4.60;;;;;;;16.33;64.59;99424.00;5064213;28;20052;-80
2022/05/23 05:34:20;;;;;;;6.20;4.20;;;;;;;16.61;62.98;99438.50;5069629;28;20044;-79
2022/05/23 05:36:52;;;;;;;7.25;4.13;;;;;;;16.71;63.18;99426.03;5064089;28;20044;-78
2022/05/23 05:39:23;;;;;;;7.32;4.50;;;;;;;16.81;63.14;99410.91;5065812;28;20088;-73
2022/05/23 05:41:57;;;;;;;8.35;4.40;;;;;;;16.84;63.73;99398.06;5070292;28;20459;-76
2022/05/23 05:44:30;;;;;;;8.40;4.05;;;;;;;16.89;64.32;99378.13;5063651;28;20076;-74
2022/05/23 05:47:00;;;;;;;8.15;4.10;;;;;;;16.88;65.70;99371.06;5064012;28;20057;-75
2022/05/23 05:49:49;;;;;;;;;;;;;;;16.92;64.78;99372.50;5072260;28;20455;-76
2022/05/23 05:52:21;;;;;;;11.48;4.03;;;;;;;16.89;65.54;99372.75;5075977;28;19928;-78
2022/05/23 05:54:48;;;;;;;7.68;4.50;;;;;;;16.85;66.66;99364.16;5065434;28;20044;-78
2022/05/23 05:57:15;;;;;;;8.98;4.13;;;;;;;16.86;67.80;99335.59;5069488;28;20136;-74
2022/05/23 05:59:42;;;;;;;9.27;4.65;;;;;;;16.59;68.94;99264.03;5068364;28;20496;-77
2022/05/23 06:02:09;;;;;;;8.10;4.47;;;;;;;16.66;70.67;99275.91;5070339;28;20082;-79
2022/05/23 06:04:36;;;;;;;7.25;4.68;;;;;;;16.60;72.67;99269.25;5064547;28;20140;-77
2022/05/23 06:12:34;;;;;;;11.77;5.45;;;;;;;16.44;77.38;99301.00;5066013;28;20052;-75
2022/05/23 06:15:01;;;;;;;7.20;4.82;;;;;;;16.38;75.54;99299.69;5061585;28;20112;-74
2022/05/23 06:17:27;;;;;;;8.27;5.32;;;;;;;16.29;76.07;99305.88;5067978;28;20143;-74
2022/05/23 06:19:54;;;;;;;9.65;5.65;;;;;;;16.20;76.56;99274.63;5065782;28;20103;-75
2022/05/23 06:22:21;;;;;;;10.38;5.93;;;;;;;16.16;77.67;99270.53;5071551;28;20135;-76
2022/05/23 06:24:51;;;;;;;10.23;5.78;;;;;;;16.07;78.46;99253.47;5074882;28;20048;-76
2022/05/23 06:27:18;;;;;;;9.68;5.50;;;;;;;15.97;79.30;99238.41;5070375;28;20040;-75
2022/05/23 06:29:44;;;;;;;10.40;6.10;;;;;;;15.95;79.79;99241.19;5070322;28;20399;-75
2022/05/23 06:32:11;;;;;;;9.43;6.15;;;;;;;15.95;81.25;99237.69;5073737;28;20565;-72
2022/05/23 06:34:38;;;;;;;8.68;5.57;;;;;;;16.06;80.40;99240.25;5062453;28;20082;-74
2022/05/23 06:37:04;;;;;;;7.65;5.60;;;;;;;15.95;79.91;99201.16;5070469;28;20611;-76
2022/05/23 06:39:31;;;;;;;6.68;5.88;;;;;;;16.29;80.13;99235.56;5071710;28;20392;-75
2022/05/23 06:41:58;;;;;;;11.93;5.85;;;;;;;16.37;78.94;99223.19;5069754;28;20052;-74
2022/05/23 06:44:25;;;;;;;8.30;5.43;;;;;;;16.52;78.34;99220.16;5071196;28;20393;-77
2022/05/23 06:46:52;;;;;;;5.85;5.10;;;;;;;16.85;76.78;99214.44;5065286;28;20083;-75
2022/05/23 06:49:18;;;;;;;7.15;5.40;;;;;;;17.23;75.21;99223.44;5077684;28;20048;-75
2022/05/23 06:51:49;;;;;;;6.03;4.80;;;;;;;17.85;74.57;99228.25;5075673;28;20049;-78
2022/05/23 06:54:17;;;;;;;;;;;;;;;18.54;71.63;99241.19;5080899;28;20391;-74
2022/05/23 06:56:43;;;;;;;6.85;5.10;;;;;;;19.26;68.51;99251.81;5076035;28;19936;-74
2022/05/23 06:59:11;;;;;;;6.97;4.78;;;;;;;19.86;63.33;99234.97;5068863;28;20163;-76
2022/05/23 07:01:38;;;;;;;9.23;4.45;;;;;;;20.30;63.44;99243.78;5063486;28;20053;-73
2022/05/23 07:04:05;;;;;;;5.35;3.97;;;;;;;20.54;60.68;99251.97;5064851;28;20049;-78
2022/05/23 07:12:27;;;;;;;4.03;3.42;;;;;;;21.35;55.95;99257.50;4999117;28;20046;-74
2022/05/23 07:14:57;;;;;;;8.48;4.13;;;;;;;21.62;54.28;99255.47;5066322;28;20055;-74
2022/05/23 07:17:24;;;;;;;7.47;4.77;;;;;;;21.63;55.94;99257.16;5071899;28;20079;-75
2022/05/23 07:19:51;;;;;;;4.40;4.00;;;;;;;21.48;55.74;99258.84;5073626;28;20053;-76
2022/05/23 07:22:17;;;;;;;6.15;4.18;;;;;;;21.51;55.79;99261.22;5071263;28;20488;-76
2022/05/23 07:24:44;;;;;;;5.32;3.83;;;;;;;21.62;56.31;99264.41;5076473;28;20053;-75
2022/05/23 07:27:12;;;;;;;8.10;4.00;;;;;;;21.71;53.23;99259.84;5075968;28;20738;-75
2022/05/23 07:29:40;;;;;;;6.20;3.58;;;;;;;21.64;54.92;99262.38;5070797;28;20048;-76
2022/05/23 07:32:15;;;;;;;6.90;4.07;;;;;;;21.72;55.36;99271.47;5069830;28;20068;-75
2022/05/23 07:34:48;;;;;;;8.85;4.38;;;;;;;21.92;52.90;99275.47;5069231;28;20068;-71
2022/05/23 07:37:15;;;;;;;4.78;3.83;;;;;;;22.05;52.18;99260.47;5072131;28;20415;-74
2022/05/23 07:39:42;;;;;;;6.55;3.75;;;;;;;22.22;52.14;99274.75;5070595;28;20044;-77
2022/05/23 07:42:09;;;;;;;5.80;3.70;;;;;;;22.32;52.08;99275.41;5068742;28;20526;-75
2022/05/23 07:44:37;;;;;;;8.50;4.20;;;;;;;22.30;51.84;99269.34;5078552;28;20048;-76
2022/05/23 07:47:06;;;;;;;8.32;3.90;;;;;;;22.10;52.08;99273.44;5069126;28;20048;-75
2022/05/23 07:49:34;;;;;;;4.73;4.07;;;;;;;21.84;55.08;99289.81;5071073;28;20411;-73
2022/05/23 07:52:03;;;;;;;5.90;3.90;;;;;;;21.50;54.79;99291.84;5072491;28;20162;-74
2022/05/23 08:02:46;;;;;;;6.22;4.35;;;;;;;21.00;56.51;99314.31;5071301;28;20457;-74
2022/05/23 08:05:13;;;;;;;9.00;6.45;;;;;;;20.93;58.28;99300.69;5085007;28;20147;-74
2022/05/23 08:07:43;;;;;;;7.00;4.22;;;;;;;21.33;54.62;99278.38;5073312;28;20659;-76
2022/05/23 08:10:11;;;;;;;6.07;3.90;;;;;;;21.80;53.18;99271.44;5080652;28;20071;-70
2022/05/23 08:12:39;;;;;;;5.18;4.35;;;;;;;22.45;52.88;99288.31;5071077;28;20052;-73
2022/05/23 08:15:07;;;;;;;5.13;3.90;;;;;;;22.95;52.03;99277.16;5070993;28;20052;-73
2022/05/23 08:17:34;;;;;;;6.18;3.53;;;;;;;23.49;49.78;99287.03;5071271;28;20044;-73
2022/05/23 08:20:00;;;;;;;8.07;3.75;;;;;;;23.83;49.50;99273.94;5077366;28;20079;-73
2022/05/23 08:22:28;;;;;;;6.68;3.92;;;;;;;24.03;48.84;99282.34;5065645;28;20496;-74
2022/05/23 08:24:55;;;;;;;7.53;3.58;;;;;;;24.08;47.39;99272.63;5072358;28;20147;-75
2022/05/23 08:27:21;;;;;;;5.65;3.80;;;;;;;24.14;46.50;99266.50;5048454;28;20076;-76
2022/05/23 08:29:48;;;;;;;5.25;3.65;;;;;;;24.00;48.02;99280.00;5074553;28;20110;-74
2022/05/23 08:32:16;;;;;;;7.40;3.58;;;;;;;23.63;47.50;99278.16;5067021;28;20044;-75
2022/05/23 08:34:43;;;;;;;4.55;3.00;;;;;;;23.52;48.71;99284.00;5073757;28;20413;-73
2022/05/23 08:37:10;;;;;;;6.03;3.20;;;;;;;23.59;48.89;99271.47;5071029;28;20079;-75
2022/05/23 08:39:36;;;;;;;5.25;3.30;;;;;;;23.58;48.50;99273.34;5069040;28;20048;-77
2022/05/23 08:42:20;;;;;;;5.65;3.08;;;;;;;23.49;48.03;99260.88;5069321;28;20105;-74
2022/05/23 08:45:14;;;;;;;5.20;3.10;;;;;;;23.61;48.82;99261.31;5065820;28;20476;-74
2022/05/23 08:47:48;;;;;;;4.28;2.70;;;;;;;23.69;48.07;99266.63;5059918;28;20087;-74
2022/05/23 08:50:20;;;;;;;2.90;2.50;;;;;;;23.56;48.41;99263.72;5069570;28;20064;-78
2022/05/23 08:53:28;;;;;;;5.57;2.85;;;;;;;23.43;48.48;99254.34;5068920;28;20112;-72
2022/05/23 08:56:00;;;;;;;2.90;2.55;;;;;;;23.39;48.39;99244.06;5068266;28;20480;-76
2022/05/23 08:58:49;;;;;;;4.53;3.13;;;;;;;23.34;49.24;99228.41;5069060;28;20049;-77
2022/05/23 09:01:21;;;;;;;4.93;3.13;;;;;;;23.50;47.95;99251.75;5062058;28;20116;-75
2022/05/23 09:03:57;;;;;;;4.53;2.88;;;;;;;23.40;48.62;99246.59;5070146;28;20067;-75
2022/05/23 09:06:28;;;;;;;5.05;3.20;;;;;;;22.94;51.05;99239.53;5066404;28;20139;-75
2022/05/23 09:09:01;;;;;;;7.50;3.30;;;;;;;23.01;52.12;99245.88;5070687;28;20683;-75
2022/05/23 09:11:34;;;;;;;7.88;3.00;;;;;;;23.40;50.45;99248.47;5076912;28;20052;-74
2022/05/23 09:14:03;;;;;;;4.95;3.00;;;;;;;23.55;49.89;99245.81;5058614;28;20052;-75
2022/05/23 09:16:35;;;;;;;5.80;3.53;;;;;;;23.30;50.93;99243.28;5070749;28;20048;-75
2022/05/23 09:19:28;;;;;;;6.25;3.25;;;;;;;23.00;51.83;99245.03;5069495;28;20064;-74
2022/05/23 09:22:13;;;;;;;7.82;3.55;;;;;;;22.79;52.33;99238.63;5057904;28;20064;-75
2022/05/23 09:24:57;;;;;;;5.25;3.33;;;;;;;22.51;52.65;99222.06;5068280;28;20194;-73
2022/05/23 09:27:44;;;;;;;4.88;2.92;;;;;;;22.72;52.60;99239.28;5065817;28;20094;-78
2022/05/23 09:30:14;;;;;;;4.28;3.05;;;;;;;22.92;52.78;99236.16;5071477;28;20543;-74
2022/05/23 09:33:08;;;;;;;7.38;3.70;;;;;;;22.93;53.11;99235.97;5066134;28;20056;-77
2022/05/23 09:35:41;;;;;;;4.45;3.28;;;;;;;22.87;52.80;99233.16;5067218;28;20407;-77
2022/05/23 09:38:29;;;;;;;5.18;3.30;;;;;;;22.90;52.09;99222.00;5067424;28;20545;-73
2022/05/23 09:40:56;;;;;;;4.80;3.38;;;;;;;23.08;52.60;99241.44;5069331;28;20056;-73
2022/05/23 09:49:19;;;;;;;4.90;3.00;;;;;;;23.06;51.90;99243.47;5080144;28;20056;-78
2022/05/23 09:51:59;;;;;;;4.53;3.22;;;;;;;22.97;52.30;99226.53;5068825;28;20442;-74
2022/05/23 09:54:52;;;;;;;5.47;3.35;;;;;;;23.07;53.90;99229.81;5075492;28;20048;-76
2022/05/23 09:57:34;;;;;;;5.78;3.00;;;;;;;23.20;51.68;99210.28;5072962;28;20051;-76
2022/05/23 10:00:05;;;;;;;5.97;3.63;;;;;;;22.91;53.45;99210.19;5074260;28;20051;-75
2022/05/23 10:02:39;;;;;;;4.45;2.83;;;;;;;23.05;53.73;99228.31;5069294;28;20459;-72
2022/05/23 10:05:28;;;;;;;4.78;2.60;;;;;;;23.21;52.76;99220.06;5070175;28;20110;-75
2022/05/23 10:08:00;;;;;;;4.00;2.72;;;;;;;23.06;52.76;99211.94;5079669;28;20090;-74
2022/05/23 10:10:34;;;;;;;6.40;2.78;;;;;;;23.37;52.00;99221.81;5072445;28;20057;-73
2022/05/23 10:13:19;;;;;;;5.57;2.72;;;;;;;23.71;51.46;99210.53;5070185;28;20133;-74
2022/05/23 10:15:52;;;;;;;7.75;2.60;;;;;;;23.87;50.82;99188.72;5076792;28;20049;-74
2022/05/23 10:18:36;;;;;;;7.53;3.25;;;;;;;24.14;50.10;99195.34;5070459;28;20411;-77
2022/05/23 10:21:26;;;;;;;6.57;3.17;;;;;;;24.23;49.51;99193.38;5071759;28;20553;-75
2022/05/23 10:24:01;;;;;;;;;;;;;;;24.32;48.92;99186.84;5075109;28;20060;-75
2022/05/23 10:26:30;;;;;;;9.73;3.40;;;;;;;24.37;48.99;99179.03;5083705;28;19920;-75
2022/05/23 10:29:15;;;;;;;6.05;2.88;;;;;;;24.49;48.83;99188.31;5072834;28;20052;-74
2022/05/23 10:32:09;;;;;;;6.50;2.70;;;;;;;24.57;48.59;99180.06;5062875;28;20560;-75
2022/05/23 10:34:41;;;;;;;5.00;2.92;;;;;;;24.60;48.36;99173.44;5081003;28;20044;-76
2022/05/23 10:37:14;;;;;;;6.75;3.17;;;;;;;24.63;49.49;99163.06;5067282;28;20368;-75
2022/05/23 10:42:42;;;;;;;3.30;2.80;;;;;;;24.30;49.52;99151.03;5072240;28;20135;-75
2022/05/23 10:45:33;;;;;;;6.20;3.10;;;;;;;24.58;49.63;99159.25;5072312;28;20457;-77
2022/05/23 10:48:25;;;;;;;6.85;3.03;;;;;;;24.69;48.79;99151.50;5069728;28;20148;-77
2022/05/23 10:50:52;;;;;;;5.13;3.15;;;;;;;24.78;48.63;99134.06;5075193;28;20129;-76
2022/05/23 10:53:34;;;;;;;3.83;2.60;;;;;;;24.63;47.68;99125.19;5068756;28;20147;-76
2022/05/23 10:56:19;;;;;;;6.18;2.97;;;;;;;24.76;48.80;99138.84;5076686;28;20041;-74
2022/05/23 10:58:59;;;;;;;5.75;2.85;;;;;;;24.96;48.68;99130.09;5067986;28;20053;-75
2022/05/23 11:01:50;;;;;;;6.60;3.13;;;;;;;25.34;48.75;99133.34;5071704;28;20053;-72
2022/05/23 11:04:29;;;;;;;4.05;2.65;;;;;;;25.52;47.84;99131.78;5068614;28;20463;-79
2022/05/23 11:06:58;;;;;;;4.35;3.00;;;;;;;25.29;47.74;99108.72;5072090;28;20064;-76
2022/05/23 11:09:37;;;;;;;8.20;3.08;;;;;;;25.25;48.93;99129.94;5082295;28;20048;-78
2022/05/23 11:12:09;;;;;;;6.13;2.75;;;;;;;25.25;48.21;99124.50;5054896;28;20040;-76
2022/05/23 11:15:03;;;;;;;4.03;2.70;;;;;;;25.52;46.96;99110.09;5069016;28;20121;-73
2022/05/23 11:17:48;;;;;;;5.03;2.80;;;;;;;25.64;46.08;99107.72;5069932;28;20110;-76
2022/05/23 11:20:21;;;;;;;7.20;2.92;;;;;;;25.65;45.91;99098.56;5069372;28;20450;-75
2022/05/23 11:23:21;;;;;;;3.85;2.42;;;;;;;25.67;46.35;99092.91;5068446;28;20499;-77
2022/05/23 11:25:56;;;;;;;5.53;2.45;;;;;;;25.76;46.19;99079.00;5065022;28;20052;-77
2022/05/23 11:34:32;;;;;;;4.30;2.60;;;;;;;26.24;45.53;99043.69;5068350;28;20084;-77
2022/05/23 11:37:42;;;;;;;6.38;2.60;;;;;;;26.45;45.26;99045.44;5065020;28;20131;-76
2022/05/23 11:40:07;;;;;;;4.20;2.92;;;;;;;26.50;44.85;99051.91;5076313;28;20085;-75
2022/05/23 11:42:57;;;;;;;4.90;2.72;;;;;;;26.09;46.26;99054.72;5068915;28;20522;-74
2022/05/23 11:48:44;;;;;;;7.53;2.97;;;;;;;26.16;46.51;99047.44;5067277;28;19924;-74
2022/05/23 11:51:17;;;;;;;5.70;2.83;;;;;;;26.26;46.20;99057.06;5065612;28;20440;-76
2022/05/23 11:53:56;;;;;;;6.05;2.70;;;;;;;26.28;46.98;99044.13;5063476;28;20110;-76
2022/05/23 11:56:44;;;;;;;5.53;2.95;;;;;;;26.53;45.90;99042.53;5076563;28;20056;-74
2022/05/23 11:59:13;;;;;;;4.40;2.92;;;;;;;26.66;45.56;99041.69;5075753;28;20078;-73
2022/05/23 12:01:39;;;;;;;4.65;3.28;;;;;;;26.73;45.75;99043.38;5066853;28;20051;-77
2022/05/23 12:04:13;;;;;;;4.63;3.08;;;;;;;26.81;45.03;99050.47;5075758;28;20400;-79
2022/05/23 12:06:41;;;;;;;7.80;3.35;;;;;;;26.68;46.25;99050.47;5080820;28;20043;-76
2022/05/23 12:09:16;;;;;;;5.47;2.85;;;;;;;26.58;45.84;99040.03;5084646;28;20464;-77
2022/05/23 12:11:51;;;;;;;5.38;3.10;;;;;;;26.57;46.35;99032.09;5070244;28;20105;-78
2022/05/23 12:14:28;;;;;;;11.90;3.20;;;;;;;26.58;46.47;99034.59;5072607;28;20052;-73
2022/05/23 12:16:57;;;;;;;7.50;2.93;;;;;;;26.53;46.12;99037.09;5071711;28;20049;-74
2022/05/23 12:19:39;;;;;;;6.80;3.60;;;;;;;26.53;46.15;99023.53;5071542;28;20637;-75
2022/05/23 12:22:18;;;;;;;5.65;3.65;;;;;;;26.50;46.58;99005.75;5075599;28;20050;-75
2022/05/23 12:24:59;;;;;;;5.75;3.33;;;;;;;26.62;47.24;99003.25;5071951;28;20500;-75
2022/05/23 12:27:34;;;;;;;6.28;3.67;;;;;;;26.77;46.81;98990.31;5073590;28;20051;-75
2022/05/23 12:30:17;;;;;;;8.63;3.10;;;;;;;26.91;46.11;98985.72;5073053;28;20045;-76
2022/05/23 12:32:57;;;;;;;7.32;2.85;;;;;;;26.67;45.53;98986.34;5070847;28;20053;-75
2022/05/23 12:35:30;;;;;;;7.00;3.28;;;;;;;26.51;45.88;98988.44;5076064;28;20066;-71
2022/05/23 12:37:57;;;;;;;8.15;3.53;;;;;;;26.54;45.78;98987.19;5077921;28;20044;-75
2022/05/23 12:40:46;;;;;;;4.63;3.13;;;;;;;26.47;45.67;98991.75;5076850;28;20064;-74
2022/05/23 12:43:13;;;;;;;4.07;2.92;;;;;;;26.07;47.10;98988.16;5070249;28;20044;-77
2022/05/23 12:46:17;;;;;;;5.82;2.67;;;;;;;25.86;48.06;98984.53;5070395;28;20429;-75
2022/05/23 12:48:59;;;;;;;6.00;3.05;;;;;;;25.52;48.72;98993.56;5066939;28;21643;-76
2022/05/23 12:51:38;;;;;;;5.85;3.00;;;;;;;25.12;49.74;98978.13;5068224;28;20060;-75
2022/05/23 12:54:26;;;;;;;5.68;2.95;;;;;;;25.37;49.45;99000.16;5072972;28;20511;-76